首页
METAR-TAF:

METAR-TAF

机场 :

基尔, 德国

纬度: 54-23N, 经度: 010-10E, 海拔: 31米

当前天气观测

该预报发布于9小时和21分钟前的15:20 UTC
风速5节,风向东北
温度 6°C
湿度 81%
气压 1013 hPa
能见度10公里或以上
1500米以下无云,无积雨云

METAR: EDHK 171520Z 04005KT CAVOK 06/03 Q1013

时间: 01:41 (00:41 UTC)

预报

该预报发布于10小时和41分钟前的14:00 UTC
预报有效从17日的 15点(UTC)到 17日的 18点(UTC)
风速5节,风向东转东北
能见度10公里或以上
1500米以下无云,无积雨云

TAF: EDHK 171400Z 1715/1718 06005KT CAVOK

超过4000个机场的气象观测和天气预报(METAR&TAF报告)。

可查询的气象台以黄色和红色小点在地图上表示。

将鼠标移到小点上方,可查看气象台名称。

然后点击查看天气观测和预报。

如需切换地图:点击带黑十字的绿色按钮放大地图;点击带横线的绿色按钮缩小地图;或者点击绿色箭头查看邻近地区的地图。


METAR-TAF: